createdAt,value
2023-02-06T00:00:18.364Z,19.87
2023-02-06T00:00:52.532Z,19.93
2023-02-06T00:01:25.323Z,19.86
2023-02-06T00:01:57.756Z,19.97
2023-02-06T00:02:30.139Z,19.87
2023-02-06T00:03:02.753Z,19.92
2023-02-06T00:03:35.123Z,19.87
2023-02-06T00:04:07.577Z,19.92
2023-02-06T00:04:39.994Z,19.88
2023-02-06T00:05:12.401Z,19.89
2023-02-06T00:05:44.900Z,19.86
2023-02-06T00:06:17.387Z,19.83
2023-02-06T00:06:49.811Z,19.82
2023-02-06T00:07:22.205Z,20.01
2023-02-06T00:07:55.021Z,20.09
2023-02-06T00:08:28.370Z,19.97
2023-02-06T00:09:00.840Z,20.00
2023-02-06T00:09:33.276Z,20.00
2023-02-06T00:10:05.926Z,20.01
2023-02-06T00:10:38.585Z,19.76
2023-02-06T00:11:14.672Z,19.92
2023-02-06T00:11:47.061Z,19.87
2023-02-06T00:12:19.453Z,19.81
2023-02-06T00:12:52.102Z,19.97
2023-02-06T00:13:24.498Z,19.75
2023-02-06T00:13:56.884Z,19.74
2023-02-06T00:14:29.322Z,19.81
2023-02-06T00:15:01.756Z,19.74
2023-02-06T00:15:34.494Z,19.73
2023-02-06T00:16:09.765Z,19.88
2023-02-06T00:16:42.176Z,19.88
2023-02-06T00:17:14.565Z,19.87
2023-02-06T00:17:46.979Z,19.87
2023-02-06T00:18:19.411Z,19.91
2023-02-06T00:18:52.703Z,19.88
2023-02-06T00:19:25.325Z,19.84
2023-02-06T00:19:57.722Z,19.85
2023-02-06T00:20:30.172Z,19.81
2023-02-06T00:21:02.558Z,19.87
2023-02-06T00:21:34.952Z,19.84
2023-02-06T00:22:07.336Z,19.85
2023-02-06T00:22:39.771Z,19.92
2023-02-06T00:23:12.190Z,19.73
2023-02-06T00:23:44.625Z,19.87
2023-02-06T00:24:17.011Z,19.99
2023-02-06T00:24:49.442Z,19.85
2023-02-06T00:25:21.872Z,19.86
2023-02-06T00:25:54.735Z,19.80
2023-02-06T00:26:27.573Z,19.83
2023-02-06T00:26:59.960Z,19.84
2023-02-06T00:27:32.369Z,19.76
2023-02-06T00:28:05.047Z,19.64
2023-02-06T00:28:38.305Z,19.78
2023-02-06T00:29:10.801Z,19.76
2023-02-06T00:29:43.202Z,19.69
2023-02-06T00:30:15.601Z,19.69
2023-02-06T00:30:48.325Z,19.72
2023-02-06T00:31:20.929Z,19.74
2023-02-06T00:31:53.357Z,19.74
2023-02-06T00:32:25.791Z,19.74
2023-02-06T00:32:58.205Z,19.76
2023-02-06T00:33:30.577Z,19.77
2023-02-06T00:34:03.891Z,19.67
2023-02-06T00:34:36.317Z,19.84
2023-02-06T00:35:08.886Z,19.82
2023-02-06T00:35:41.361Z,19.72
2023-02-06T00:36:13.780Z,19.79
2023-02-06T00:36:46.180Z,19.88
2023-02-06T00:37:18.609Z,19.80
2023-02-06T00:37:51.432Z,19.82
2023-02-06T00:38:23.916Z,19.78
2023-02-06T00:38:56.374Z,19.87
2023-02-06T00:39:29.014Z,19.74
2023-02-06T00:40:01.432Z,19.80
2023-02-06T00:40:33.914Z,19.92
2023-02-06T00:41:06.740Z,19.82
2023-02-06T00:41:39.150Z,19.67
2023-02-06T00:42:11.540Z,19.74
2023-02-06T00:42:44.010Z,19.76
2023-02-06T00:43:16.612Z,19.68
2023-02-06T00:43:48.992Z,19.66
2023-02-06T00:44:21.714Z,19.65
2023-02-06T00:44:54.205Z,19.58
2023-02-06T00:45:26.590Z,19.59
2023-02-06T00:45:59.250Z,19.59
2023-02-06T00:46:32.777Z,19.64
2023-02-06T00:47:05.257Z,19.74
2023-02-06T00:47:37.785Z,19.63
2023-02-06T00:48:10.314Z,19.63
2023-02-06T00:48:42.687Z,19.66
2023-02-06T00:49:15.447Z,19.58
2023-02-06T00:49:47.911Z,19.77
2023-02-06T00:50:20.732Z,19.65
2023-02-06T00:50:54.275Z,19.54
2023-02-06T00:51:26.713Z,19.62
2023-02-06T00:51:59.086Z,19.62
2023-02-06T00:52:31.569Z,19.51
2023-02-06T00:53:04.097Z,19.69
2023-02-06T00:53:36.479Z,19.60
2023-02-06T00:54:09.619Z,19.77
2023-02-06T00:54:41.973Z,19.74
2023-02-06T00:55:14.428Z,19.66
2023-02-06T00:55:46.846Z,19.75
2023-02-06T00:56:19.542Z,19.81
2023-02-06T00:56:51.926Z,19.65
2023-02-06T00:57:24.294Z,19.85
2023-02-06T00:57:56.693Z,19.85
2023-02-06T00:58:29.137Z,19.75
2023-02-06T00:59:01.853Z,19.77
2023-02-06T00:59:34.260Z,19.63
2023-02-06T01:00:08.457Z,19.74
2023-02-06T01:00:40.844Z,19.55
2023-02-06T01:01:13.260Z,19.73
2023-02-06T01:01:45.750Z,19.62
2023-02-06T01:02:18.192Z,19.53
2023-02-06T01:02:50.692Z,19.44
2023-02-06T01:03:23.095Z,19.48
2023-02-06T01:03:55.773Z,19.57
2023-02-06T01:04:28.144Z,19.81
2023-02-06T01:05:00.595Z,19.79
2023-02-06T01:05:33.131Z,19.71
2023-02-06T01:06:05.918Z,19.70
2023-02-06T01:06:38.310Z,19.66
2023-02-06T01:07:10.692Z,19.67
2023-02-06T01:07:43.089Z,19.58
2023-02-06T01:08:15.756Z,19.42
2023-02-06T01:08:48.933Z,19.80
2023-02-06T01:09:21.327Z,19.62
2023-02-06T01:09:53.711Z,19.67
2023-02-06T01:10:26.112Z,19.64
2023-02-06T01:10:58.501Z,19.70
2023-02-06T01:11:30.926Z,19.73
2023-02-06T01:12:03.346Z,19.80
2023-02-06T01:12:36.889Z,19.87
2023-02-06T01:13:09.427Z,19.79
2023-02-06T01:13:42.054Z,19.67
2023-02-06T01:14:15.925Z,19.77
2023-02-06T01:14:48.903Z,19.71
2023-02-06T01:15:21.302Z,19.63
2023-02-06T01:15:53.769Z,19.60
2023-02-06T01:16:26.250Z,19.71
2023-02-06T01:16:58.682Z,19.61
2023-02-06T01:17:33.314Z,19.51
2023-02-06T01:18:06.112Z,19.66
2023-02-06T01:18:39.015Z,19.57
2023-02-06T01:19:11.409Z,19.62
2023-02-06T01:19:43.801Z,19.43
2023-02-06T01:20:16.180Z,19.66
2023-02-06T01:20:48.619Z,19.64
2023-02-06T01:21:24.271Z,19.53
2023-02-06T01:21:56.660Z,19.52
2023-02-06T01:22:29.144Z,19.76
2023-02-06T01:23:01.558Z,19.60
2023-02-06T01:23:33.970Z,19.64
2023-02-06T01:24:06.588Z,19.53
2023-02-06T01:24:38.990Z,19.36
2023-02-06T01:25:11.384Z,19.47
2023-02-06T01:25:43.778Z,19.79
2023-02-06T01:26:18.421Z,19.71
2023-02-06T01:26:50.791Z,19.56
2023-02-06T01:27:23.226Z,19.62
2023-02-06T01:27:55.627Z,19.77
2023-02-06T01:28:28.014Z,19.63
2023-02-06T01:29:00.450Z,19.59
2023-02-06T01:29:32.899Z,19.65
2023-02-06T01:30:07.059Z,19.66
2023-02-06T01:30:39.989Z,19.61
2023-02-06T01:31:17.294Z,19.49
2023-02-06T01:31:49.746Z,19.52
2023-02-06T01:32:22.127Z,19.51
2023-02-06T01:32:54.517Z,19.51
2023-02-06T01:33:26.887Z,19.55
2023-02-06T01:34:01.134Z,19.53
2023-02-06T01:34:33.543Z,19.44
2023-02-06T01:35:07.953Z,19.51
2023-02-06T01:35:40.331Z,19.53
2023-02-06T01:36:13.760Z,19.51
2023-02-06T01:36:46.150Z,19.54
2023-02-06T01:37:18.533Z,19.54
2023-02-06T01:37:50.917Z,19.62
2023-02-06T01:38:23.352Z,19.57
2023-02-06T01:38:55.736Z,19.50
2023-02-06T01:39:28.116Z,19.46
2023-02-06T01:40:00.543Z,19.50
2023-02-06T01:40:32.968Z,19.48
2023-02-06T01:41:06.616Z,19.61
2023-02-06T01:41:39.014Z,19.60
2023-02-06T01:42:14.572Z,19.66
2023-02-06T01:42:46.962Z,19.65
2023-02-06T01:43:19.489Z,19.62
2023-02-06T01:44:11.722Z,19.60
2023-02-06T01:44:44.120Z,19.66
2023-02-06T01:45:22.498Z,19.68
2023-02-06T01:45:54.946Z,19.54
2023-02-06T01:46:27.335Z,19.49
2023-02-06T01:46:59.753Z,19.44
2023-02-06T01:47:32.193Z,19.49
2023-02-06T01:48:08.933Z,19.48
2023-02-06T01:48:49.745Z,19.65
2023-02-06T01:49:40.815Z,19.46
2023-02-06T01:50:13.192Z,19.44
2023-02-06T01:50:49.165Z,19.52
2023-02-06T01:51:25.443Z,19.54
2023-02-06T01:52:10.303Z,19.55
2023-02-06T01:52:42.734Z,19.64
2023-02-06T01:53:16.231Z,19.53
2023-02-06T01:53:52.376Z,19.53
2023-02-06T01:54:25.438Z,19.42
2023-02-06T01:55:02.295Z,19.46
2023-02-06T01:55:36.770Z,19.53
2023-02-06T01:56:10.572Z,19.55
2023-02-06T01:56:48.954Z,19.55
2023-02-06T01:57:22.201Z,19.42
2023-02-06T01:57:54.668Z,19.56
2023-02-06T01:58:31.112Z,19.52
2023-02-06T01:59:05.388Z,19.55
2023-02-06T01:59:41.556Z,19.75
2023-02-06T02:00:14.261Z,19.67
2023-02-06T02:00:46.850Z,19.69
2023-02-06T02:01:20.875Z,19.63
2023-02-06T02:01:53.283Z,19.51
2023-02-06T02:02:28.200Z,19.61
2023-02-06T02:03:02.091Z,19.58
2023-02-06T02:03:37.069Z,19.53
2023-02-06T02:04:14.450Z,19.41
2023-02-06T02:04:46.948Z,19.46
2023-02-06T02:05:20.669Z,19.36
2023-02-06T02:05:59.785Z,19.36
2023-02-06T02:06:32.202Z,19.49
2023-02-06T02:07:18.637Z,19.43
2023-02-06T02:08:01.046Z,19.48
2023-02-06T02:08:38.327Z,19.60
2023-02-06T02:09:11.205Z,19.52
2023-02-06T02:09:43.680Z,19.60
2023-02-06T02:10:16.232Z,19.62
2023-02-06T02:10:48.836Z,19.61
2023-02-06T02:11:24.397Z,19.54
2023-02-06T02:11:56.821Z,19.54
2023-02-06T02:12:29.356Z,19.59
2023-02-06T02:13:01.788Z,19.54
2023-02-06T02:13:36.487Z,19.46
2023-02-06T02:14:12.313Z,19.49
2023-02-06T02:14:46.495Z,19.50
2023-02-06T02:15:19.034Z,19.36
2023-02-06T02:16:39.635Z,19.59
2023-02-06T02:17:14.787Z,19.56
2023-02-06T02:18:29.025Z,19.34
2023-02-06T02:19:19.582Z,19.43
2023-02-06T02:20:16.477Z,19.52
2023-02-06T02:21:10.675Z,19.39
2023-02-06T02:21:58.199Z,19.35
2023-02-06T02:22:58.005Z,19.49
2023-02-06T02:23:34.800Z,19.50
2023-02-06T02:24:16.387Z,19.50
2023-02-06T02:25:22.366Z,19.45
2023-02-06T02:26:15.874Z,19.46
2023-02-06T02:27:10.079Z,19.41
2023-02-06T02:28:19.622Z,19.49
2023-02-06T02:28:54.893Z,19.55
2023-02-06T02:29:33.389Z,19.63
2023-02-06T02:30:10.582Z,19.46
2023-02-06T02:31:14.193Z,19.55
2023-02-06T02:32:16.149Z,19.64
2023-02-06T02:32:57.315Z,19.56
2023-02-06T02:33:43.941Z,19.44
2023-02-06T02:34:37.757Z,19.37
2023-02-06T02:35:42.705Z,19.48
2023-02-06T02:36:33.590Z,19.34
2023-02-06T02:37:30.317Z,19.35
2023-02-06T02:38:20.061Z,19.46
2023-02-06T02:39:04.852Z,19.32
2023-02-06T02:40:02.295Z,19.45
2023-02-06T02:40:50.861Z,19.50
2023-02-06T02:41:29.085Z,19.53
2023-02-06T02:42:06.801Z,19.49
2023-02-06T02:43:08.149Z,19.47
2023-02-06T02:43:59.367Z,19.40
2023-02-06T02:44:40.832Z,19.58
2023-02-06T02:45:20.434Z,19.35
2023-02-06T02:46:00.232Z,19.37
2023-02-06T02:46:42.584Z,19.48
2023-02-06T02:47:18.130Z,19.66
2023-02-06T02:47:57.413Z,19.47
2023-02-06T02:48:35.176Z,19.54
2023-02-06T02:49:14.915Z,19.45
2023-02-06T02:49:47.523Z,19.45
2023-02-06T02:50:21.141Z,19.33
2023-02-06T02:50:55.100Z,19.54
2023-02-06T02:51:27.497Z,19.40
2023-02-06T02:52:00.288Z,19.39
2023-02-06T02:52:32.674Z,19.30
2023-02-06T02:53:06.185Z,19.32
2023-02-06T02:53:39.019Z,19.36
2023-02-06T02:54:11.425Z,19.32
2023-02-06T02:54:43.817Z,19.33
2023-02-06T02:55:24.085Z,19.38
2023-02-06T02:55:56.552Z,19.50
2023-02-06T02:56:29.051Z,19.34
2023-02-06T02:57:07.469Z,19.30
2023-02-06T02:57:39.939Z,19.42
2023-02-06T02:58:19.437Z,19.50
2023-02-06T02:58:55.696Z,19.32
2023-02-06T02:59:37.743Z,19.45
2023-02-06T03:00:11.258Z,19.28
2023-02-06T03:00:52.414Z,19.40
2023-02-06T03:01:33.976Z,19.44
2023-02-06T03:02:11.528Z,19.52
2023-02-06T03:02:46.802Z,19.48
2023-02-06T03:03:22.905Z,19.49
2023-02-06T03:03:59.130Z,19.48
2023-02-06T03:04:41.895Z,19.43
2023-02-06T03:05:17.105Z,19.43
2023-02-06T03:06:20.039Z,19.48
2023-02-06T03:07:23.370Z,19.22
2023-02-06T03:08:24.754Z,19.33
2023-02-06T03:09:02.706Z,19.37
2023-02-06T03:09:51.704Z,19.28
2023-02-06T03:10:45.609Z,19.24
2023-02-06T03:11:19.761Z,19.27
2023-02-06T03:12:01.241Z,19.27
2023-02-06T03:12:46.191Z,19.30
2023-02-06T03:13:39.438Z,19.26
2023-02-06T03:14:20.863Z,19.24
2023-02-06T03:15:00.152Z,19.24
2023-02-06T03:15:49.315Z,19.31
2023-02-06T03:16:48.900Z,19.33
2023-02-06T03:17:31.533Z,19.23
2023-02-06T03:18:19.666Z,19.20
2023-02-06T03:18:59.750Z,19.23
2023-02-06T03:19:37.045Z,19.34
2023-02-06T03:20:10.705Z,19.35
2023-02-06T03:20:46.217Z,19.36
2023-02-06T03:21:21.229Z,19.22
2023-02-06T03:21:53.620Z,19.27
2023-02-06T03:22:28.994Z,19.23
2023-02-06T03:23:03.861Z,19.19
2023-02-06T03:23:40.289Z,19.16
2023-02-06T03:24:20.008Z,19.15
2023-02-06T03:24:54.718Z,19.13
2023-02-06T03:25:36.677Z,19.09
2023-02-06T03:26:11.745Z,19.11
2023-02-06T03:26:45.225Z,19.19
2023-02-06T03:27:18.389Z,19.07
2023-02-06T03:27:51.833Z,19.21
2023-02-06T03:28:28.662Z,19.19
2023-02-06T03:29:04.612Z,19.27
2023-02-06T03:29:39.398Z,19.21
2023-02-06T03:30:15.171Z,19.21
2023-02-06T03:30:52.334Z,19.24
2023-02-06T03:31:35.374Z,19.13
2023-02-06T03:32:24.390Z,19.23
2023-02-06T03:33:02.839Z,19.25
2023-02-06T03:33:41.092Z,19.39
2023-02-06T03:34:15.593Z,19.27
2023-02-06T03:35:06.271Z,19.22
2023-02-06T03:35:40.261Z,19.19
2023-02-06T03:36:17.105Z,19.36
2023-02-06T03:36:50.858Z,19.38
2023-02-06T03:37:24.537Z,19.10
2023-02-06T03:37:57.137Z,18.98
2023-02-06T03:38:29.575Z,19.16
2023-02-06T03:39:02.233Z,19.03
2023-02-06T03:39:35.293Z,19.07
2023-02-06T03:40:09.208Z,19.01
2023-02-06T03:40:44.659Z,18.99
2023-02-06T03:41:19.512Z,19.14
2023-02-06T03:41:53.157Z,19.08
2023-02-06T03:42:26.893Z,19.05
2023-02-06T03:43:02.774Z,19.06
2023-02-06T03:43:35.168Z,19.10
2023-02-06T03:44:11.776Z,19.05
2023-02-06T03:44:52.861Z,19.13
2023-02-06T03:45:30.529Z,19.01
2023-02-06T03:46:06.436Z,19.20
2023-02-06T03:46:41.168Z,19.09
2023-02-06T03:47:17.057Z,19.19
2023-02-06T03:47:50.372Z,19.21
2023-02-06T03:48:28.422Z,19.16
2023-02-06T03:49:03.486Z,19.30
2023-02-06T03:49:39.552Z,19.21
2023-02-06T03:50:13.148Z,19.21
2023-02-06T03:50:48.000Z,19.06
2023-02-06T03:51:26.280Z,19.25
2023-02-06T03:52:03.850Z,19.19
2023-02-06T03:52:44.068Z,19.24
2023-02-06T03:53:18.361Z,19.15
2023-02-06T03:53:54.229Z,19.11
2023-02-06T03:54:28.310Z,19.03
2023-02-06T03:55:05.426Z,19.43
2023-02-06T03:55:39.783Z,19.60
2023-02-06T03:56:20.061Z,19.22
2023-02-06T03:56:53.517Z,19.13
2023-02-06T03:57:29.317Z,19.20
2023-02-06T03:58:07.662Z,19.17
2023-02-06T03:58:40.134Z,19.64
2023-02-06T03:59:12.587Z,19.47
2023-02-06T03:59:44.993Z,19.58
2023-02-06T04:00:17.524Z,19.56
2023-02-06T04:00:49.986Z,19.50
2023-02-06T04:01:23.762Z,19.45
2023-02-06T04:01:59.686Z,19.57
2023-02-06T04:02:32.565Z,19.50
2023-02-06T04:03:05.418Z,19.30
2023-02-06T04:03:37.809Z,19.35
2023-02-06T04:04:10.340Z,19.32
2023-02-06T04:04:46.217Z,19.41
2023-02-06T04:05:19.787Z,18.95
2023-02-06T04:05:52.227Z,18.56
2023-02-06T04:06:25.192Z,18.51
2023-02-06T04:07:00.208Z,18.43
2023-02-06T04:07:35.214Z,18.46
2023-02-06T04:08:07.916Z,18.58
2023-02-06T04:08:40.356Z,18.54
2023-02-06T04:09:12.956Z,18.69
2023-02-06T04:09:45.404Z,18.74
2023-02-06T04:10:17.849Z,18.54
2023-02-06T04:10:50.253Z,18.69
2023-02-06T04:11:22.625Z,18.44
2023-02-06T04:11:55.028Z,18.43
2023-02-06T04:12:28.498Z,18.39
2023-02-06T04:13:00.928Z,18.34
2023-02-06T04:13:33.359Z,18.35
2023-02-06T04:14:05.796Z,18.32
2023-02-06T04:14:38.242Z,18.31
2023-02-06T04:15:11.445Z,18.29
2023-02-06T04:15:43.884Z,18.30
2023-02-06T04:16:16.353Z,18.28
2023-02-06T04:16:48.892Z,18.29
2023-02-06T04:17:40.655Z,18.30
2023-02-06T04:18:13.743Z,18.26
2023-02-06T04:18:46.144Z,18.24
2023-02-06T04:19:18.673Z,18.20
2023-02-06T04:19:51.066Z,18.18
2023-02-06T04:20:23.526Z,18.16
2023-02-06T04:20:55.919Z,18.15
2023-02-06T04:21:28.328Z,18.15
2023-02-06T04:22:00.882Z,18.13
2023-02-06T04:22:33.373Z,18.11
2023-02-06T04:23:05.773Z,18.10
2023-02-06T04:23:38.153Z,18.10
2023-02-06T04:24:10.587Z,18.08
2023-02-06T04:24:43.451Z,18.06
2023-02-06T04:25:15.875Z,18.05
2023-02-06T04:25:48.791Z,18.05
2023-02-06T04:26:21.173Z,18.03
2023-02-06T04:26:54.111Z,18.03
2023-02-06T04:27:26.671Z,18.00
2023-02-06T04:27:59.290Z,17.99
2023-02-06T04:28:31.756Z,17.98
2023-02-06T04:29:04.157Z,17.98
2023-02-06T04:29:36.680Z,17.96
2023-02-06T04:30:09.830Z,17.94
2023-02-06T04:30:42.517Z,17.92
2023-02-06T04:31:15.091Z,17.91
2023-02-06T04:31:47.688Z,17.91
2023-02-06T04:32:20.073Z,17.89
2023-02-06T04:32:52.498Z,17.88
2023-02-06T04:33:24.954Z,17.85
2023-02-06T04:33:57.410Z,17.83
2023-02-06T04:34:30.382Z,17.80
2023-02-06T04:35:02.877Z,17.81
2023-02-06T04:35:35.581Z,17.80
2023-02-06T04:36:08.288Z,17.78
2023-02-06T04:36:40.672Z,17.77
2023-02-06T04:37:13.050Z,17.75
2023-02-06T04:37:45.433Z,17.74
2023-02-06T04:38:17.848Z,17.74
2023-02-06T04:38:50.239Z,17.73
2023-02-06T04:39:23.185Z,17.72
2023-02-06T04:39:55.561Z,17.71
2023-02-06T04:40:27.978Z,17.70
2023-02-06T04:41:05.364Z,17.69
2023-02-06T04:41:37.766Z,17.68
2023-02-06T04:42:10.207Z,17.70
2023-02-06T04:42:42.555Z,17.69
2023-02-06T04:43:14.974Z,17.68
2023-02-06T04:43:47.371Z,17.67
2023-02-06T04:44:19.773Z,17.66
2023-02-06T04:44:52.224Z,17.65
2023-02-06T04:45:24.605Z,17.64
2023-02-06T04:45:57.019Z,17.62
2023-02-06T04:46:29.545Z,17.63
2023-02-06T04:47:03.235Z,17.62
2023-02-06T04:47:35.680Z,17.61
2023-02-06T04:48:08.313Z,17.61
2023-02-06T04:48:40.708Z,17.60
2023-02-06T04:49:14.059Z,17.59
2023-02-06T04:49:46.505Z,17.58
2023-02-06T04:50:19.360Z,17.56
2023-02-06T04:50:52.430Z,17.55
2023-02-06T04:51:24.807Z,17.53
2023-02-06T04:51:57.274Z,17.53
2023-02-06T04:52:29.642Z,17.53
2023-02-06T04:53:02.163Z,17.52
2023-02-06T04:53:34.907Z,17.52
2023-02-06T04:54:07.441Z,17.51
2023-02-06T04:54:39.829Z,17.49
2023-02-06T04:55:12.324Z,17.49
2023-02-06T04:55:44.748Z,17.47
2023-02-06T04:56:17.286Z,17.47
2023-02-06T04:56:49.693Z,17.46
2023-02-06T04:57:22.170Z,17.44
2023-02-06T04:57:54.563Z,17.44
2023-02-06T04:58:26.948Z,17.43
2023-02-06T04:58:59.338Z,17.43
2023-02-06T04:59:31.838Z,17.41
2023-02-06T05:00:05.998Z,17.41
2023-02-06T05:00:38.861Z,17.39
2023-02-06T05:01:11.460Z,17.39
2023-02-06T05:01:43.940Z,17.38
2023-02-06T05:02:16.467Z,17.37
2023-02-06T05:02:48.912Z,17.36
2023-02-06T05:03:23.468Z,17.35
2023-02-06T05:03:55.896Z,17.35
2023-02-06T05:04:28.302Z,17.36
2023-02-06T05:05:00.706Z,17.35
2023-02-06T05:05:33.285Z,17.34
2023-02-06T05:06:05.984Z,17.32
2023-02-06T05:06:38.415Z,17.28
2023-02-06T05:07:10.787Z,17.25
2023-02-06T05:07:43.184Z,17.23
2023-02-06T05:08:15.811Z,17.24
2023-02-06T05:08:48.209Z,17.23
2023-02-06T05:09:20.618Z,17.20
2023-02-06T05:09:53.060Z,17.20
2023-02-06T05:10:26.949Z,17.17
2023-02-06T05:10:59.339Z,17.15
2023-02-06T05:11:31.915Z,17.14
2023-02-06T05:12:05.101Z,17.14
2023-02-06T05:12:37.771Z,17.11
2023-02-06T05:13:10.198Z,17.10
2023-02-06T05:13:42.759Z,17.09
2023-02-06T05:14:15.146Z,17.08
2023-02-06T05:14:47.576Z,17.07
2023-02-06T05:15:20.086Z,17.06
2023-02-06T05:15:52.676Z,17.06
2023-02-06T05:16:25.166Z,17.04
2023-02-06T05:16:57.551Z,17.04
2023-02-06T05:17:29.985Z,17.04
2023-02-06T05:18:02.369Z,17.02
2023-02-06T05:18:34.825Z,17.02
2023-02-06T05:19:07.216Z,17.01
2023-02-06T05:19:39.598Z,16.99
2023-02-06T05:20:12.238Z,16.98
2023-02-06T05:20:44.925Z,16.98
2023-02-06T05:21:17.305Z,16.95
2023-02-06T05:21:49.712Z,16.94
2023-02-06T05:22:22.769Z,16.94
2023-02-06T05:22:55.302Z,16.95
2023-02-06T05:23:27.713Z,16.95
2023-02-06T05:24:00.134Z,16.94
2023-02-06T05:24:32.665Z,16.93
2023-02-06T05:25:05.161Z,16.92
2023-02-06T05:25:38.183Z,16.92
2023-02-06T05:26:10.622Z,16.91
2023-02-06T05:26:43.072Z,16.90
2023-02-06T05:27:15.440Z,16.90
2023-02-06T05:27:48.022Z,16.89
2023-02-06T05:28:20.540Z,16.88
2023-02-06T05:28:53.173Z,16.87
2023-02-06T05:29:26.655Z,16.85
2023-02-06T05:29:59.048Z,16.84
2023-02-06T05:30:31.447Z,16.84
2023-02-06T05:31:04.736Z,16.83
2023-02-06T05:31:37.344Z,16.82
2023-02-06T05:32:09.872Z,16.81
2023-02-06T05:32:42.404Z,16.80
2023-02-06T05:33:14.869Z,16.82
2023-02-06T05:33:51.833Z,16.80
2023-02-06T05:34:24.647Z,16.77
2023-02-06T05:34:57.081Z,16.75
2023-02-06T05:35:29.519Z,16.75
2023-02-06T05:36:04.547Z,16.75
2023-02-06T05:36:37.052Z,16.74
2023-02-06T05:37:09.436Z,16.73
2023-02-06T05:37:42.120Z,16.74
2023-02-06T05:38:14.579Z,16.73
2023-02-06T05:38:47.321Z,16.74
2023-02-06T05:39:19.735Z,16.75
2023-02-06T05:39:52.190Z,16.75
2023-02-06T05:40:24.949Z,16.74
2023-02-06T05:40:57.391Z,16.73
2023-02-06T05:41:29.777Z,16.72
2023-02-06T05:42:02.217Z,16.71
2023-02-06T05:42:34.791Z,16.71
2023-02-06T05:43:07.192Z,16.71
2023-02-06T05:43:39.659Z,16.70
2023-02-06T05:44:12.239Z,16.69
2023-02-06T05:44:44.707Z,16.69
2023-02-06T05:45:17.134Z,16.69
2023-02-06T05:45:49.521Z,16.68
2023-02-06T05:46:22.097Z,16.68
2023-02-06T05:46:54.741Z,16.65
2023-02-06T05:47:27.234Z,16.64
2023-02-06T05:47:59.686Z,16.64
2023-02-06T05:48:34.467Z,16.65
2023-02-06T05:49:07.049Z,16.64
2023-02-06T05:49:39.557Z,16.63
2023-02-06T05:50:12.049Z,16.62
2023-02-06T05:50:45.305Z,16.62
2023-02-06T05:51:17.701Z,16.61
2023-02-06T05:51:50.255Z,16.59
2023-02-06T05:52:22.631Z,16.58
2023-02-06T05:52:55.073Z,16.57
2023-02-06T05:53:27.544Z,16.58
2023-02-06T05:53:59.972Z,16.57
2023-02-06T05:54:32.408Z,16.58
2023-02-06T05:55:05.360Z,16.58
2023-02-06T05:55:38.039Z,16.57
2023-02-06T05:56:10.613Z,16.57
2023-02-06T05:56:43.099Z,16.56
2023-02-06T05:57:15.512Z,16.57
2023-02-06T05:57:47.882Z,16.56
2023-02-06T05:58:20.307Z,16.57
2023-02-06T05:58:52.677Z,16.58
2023-02-06T05:59:25.249Z,16.58
2023-02-06T05:59:57.630Z,16.58
2023-02-06T06:00:30.003Z,16.59
2023-02-06T06:01:02.545Z,16.60
2023-02-06T06:01:34.960Z,16.60
2023-02-06T06:02:07.597Z,16.59
2023-02-06T06:02:40.452Z,16.60
2023-02-06T06:03:12.866Z,16.61
2023-02-06T06:03:45.317Z,16.63
2023-02-06T06:04:17.847Z,16.66
2023-02-06T06:04:50.280Z,16.72
2023-02-06T06:05:22.704Z,16.84
2023-02-06T06:05:55.159Z,17.00
2023-02-06T06:06:27.678Z,17.21
2023-02-06T06:07:00.104Z,17.41
2023-02-06T06:07:32.507Z,17.55
2023-02-06T06:08:05.141Z,17.70
2023-02-06T06:08:37.701Z,17.85
2023-02-06T06:09:10.107Z,17.98
2023-02-06T06:09:42.544Z,18.09
2023-02-06T06:10:15.319Z,18.15
2023-02-06T06:10:51.295Z,18.22
2023-02-06T06:11:23.781Z,18.28
2023-02-06T06:11:56.181Z,18.33
2023-02-06T06:12:28.568Z,18.42
2023-02-06T06:13:01.041Z,18.50
2023-02-06T06:13:33.523Z,18.57
2023-02-06T06:14:06.572Z,18.61
2023-02-06T06:14:38.978Z,18.66
2023-02-06T06:15:11.438Z,18.71
2023-02-06T06:15:43.929Z,18.82
2023-02-06T06:16:16.374Z,18.96
2023-02-06T06:16:48.777Z,19.05
2023-02-06T06:17:21.604Z,19.10
2023-02-06T06:17:54.038Z,19.14
2023-02-06T06:18:27.562Z,19.24
2023-02-06T06:19:01.791Z,19.31
2023-02-06T06:19:34.492Z,19.37
2023-02-06T06:20:07.185Z,19.38
2023-02-06T06:20:39.588Z,19.44
2023-02-06T06:21:12.116Z,19.44
2023-02-06T06:21:44.566Z,19.41
2023-02-06T06:22:16.948Z,19.38
2023-02-06T06:22:49.356Z,19.30
2023-02-06T06:23:21.753Z,19.22
2023-02-06T06:23:54.281Z,19.15
2023-02-06T06:24:27.459Z,19.14
2023-02-06T06:24:59.861Z,19.12
2023-02-06T06:25:32.308Z,19.10
2023-02-06T06:26:05.118Z,19.08
2023-02-06T06:26:37.556Z,19.06
2023-02-06T06:27:10.810Z,19.07
2023-02-06T06:27:43.535Z,19.05
2023-02-06T06:28:16.138Z,19.03
2023-02-06T06:28:49.083Z,19.03
2023-02-06T06:29:21.507Z,19.00
2023-02-06T06:29:53.948Z,18.97
2023-02-06T06:30:26.436Z,18.95
2023-02-06T06:31:04.086Z,18.92
2023-02-06T06:31:36.543Z,18.89
2023-02-06T06:32:08.951Z,18.87
2023-02-06T06:32:41.450Z,18.84
2023-02-06T06:33:16.385Z,18.83
2023-02-06T06:33:48.818Z,18.80
2023-02-06T06:34:21.203Z,18.79
2023-02-06T06:34:53.627Z,18.78
2023-02-06T06:35:26.101Z,18.71
2023-02-06T06:35:58.457Z,18.66
2023-02-06T06:36:30.852Z,18.62
2023-02-06T06:37:03.290Z,18.60
2023-02-06T06:37:35.659Z,18.63
2023-02-06T06:38:08.058Z,18.65
2023-02-06T06:38:40.620Z,18.73
2023-02-06T06:39:13.046Z,18.76
2023-02-06T06:39:45.419Z,18.79
2023-02-06T06:40:17.975Z,18.82
2023-02-06T06:40:50.490Z,18.84
2023-02-06T06:41:22.941Z,18.85
2023-02-06T06:41:55.354Z,18.86
2023-02-06T06:42:27.756Z,18.88
2023-02-06T06:43:00.156Z,18.90
2023-02-06T06:43:33.140Z,18.94
2023-02-06T06:44:05.635Z,18.95
2023-02-06T06:44:38.046Z,18.96
2023-02-06T06:45:10.640Z,18.96
2023-02-06T06:45:43.220Z,18.97
2023-02-06T06:46:15.632Z,19.00
2023-02-06T06:46:48.022Z,18.99
2023-02-06T06:47:20.398Z,18.99
2023-02-06T06:47:52.878Z,19.03
2023-02-06T06:48:25.260Z,19.05
2023-02-06T06:48:57.666Z,19.03
2023-02-06T06:49:30.092Z,19.01
2023-02-06T06:50:02.645Z,19.00
2023-02-06T06:50:35.115Z,19.00
2023-02-06T06:51:08.047Z,19.02
2023-02-06T06:51:40.450Z,18.99
2023-02-06T06:52:24.038Z,18.91
2023-02-06T06:52:57.665Z,18.90
2023-02-06T06:53:30.025Z,18.92
2023-02-06T06:54:02.459Z,18.92
2023-02-06T06:54:34.824Z,18.93
2023-02-06T06:55:07.554Z,18.98
2023-02-06T06:55:39.958Z,19.04
2023-02-06T06:56:13.913Z,19.10
2023-02-06T06:56:46.585Z,19.14
2023-02-06T06:57:18.973Z,19.17
2023-02-06T06:57:51.421Z,19.20
2023-02-06T06:58:23.811Z,19.21
2023-02-06T06:58:56.236Z,19.24
2023-02-06T06:59:28.681Z,19.27
2023-02-06T07:00:01.215Z,19.33
2023-02-06T07:00:33.647Z,19.35
2023-02-06T07:01:06.705Z,19.32
2023-02-06T07:01:39.110Z,19.36
2023-02-06T07:02:12.063Z,19.41
2023-02-06T07:02:44.692Z,19.50
2023-02-06T07:03:17.101Z,19.55
2023-02-06T07:03:49.571Z,19.58
2023-02-06T07:04:23.030Z,19.60
2023-02-06T07:04:55.679Z,19.62
2023-02-06T07:05:28.082Z,19.63
2023-02-06T07:06:00.504Z,19.62
2023-02-06T07:06:32.918Z,19.60
2023-02-06T07:07:05.402Z,19.64
2023-02-06T07:07:39.473Z,19.67
2023-02-06T07:08:11.894Z,19.66
2023-02-06T07:08:44.468Z,19.75
2023-02-06T07:09:16.940Z,19.74
2023-02-06T07:09:49.343Z,19.77
2023-02-06T07:10:21.786Z,19.78
2023-02-06T07:10:54.160Z,19.80
2023-02-06T07:11:26.861Z,19.77
2023-02-06T07:11:59.381Z,19.78
2023-02-06T07:12:31.789Z,19.77
2023-02-06T07:13:04.221Z,19.78
2023-02-06T07:13:36.604Z,19.79
2023-02-06T07:14:09.054Z,19.78
2023-02-06T07:14:41.456Z,19.76
2023-02-06T07:15:13.856Z,19.77
2023-02-06T07:15:46.275Z,19.84
2023-02-06T07:16:18.682Z,19.86
2023-02-06T07:16:51.169Z,19.85
2023-02-06T07:17:23.628Z,19.85
2023-02-06T07:17:56.025Z,19.89
2023-02-06T07:18:28.492Z,19.87
2023-02-06T07:19:00.868Z,19.82
2023-02-06T07:19:33.252Z,19.84
2023-02-06T07:20:05.978Z,19.94
2023-02-06T07:20:38.473Z,19.87
2023-02-06T07:21:11.512Z,19.87
2023-02-06T07:21:44.011Z,19.95
2023-02-06T07:22:16.527Z,19.98
2023-02-06T07:22:50.311Z,20.06
2023-02-06T07:23:22.717Z,20.17
2023-02-06T07:23:55.178Z,20.11
2023-02-06T07:24:27.634Z,20.15
2023-02-06T07:25:00.020Z,20.26